createdAt,value
2022-08-19T00:00:39.942Z,28.50
2022-08-19T00:01:40.088Z,30.00
2022-08-19T00:02:40.331Z,30.20
2022-08-19T00:03:41.278Z,29.90
2022-08-19T00:04:40.426Z,28.00
2022-08-19T00:05:40.553Z,30.10
2022-08-19T00:06:40.675Z,28.80
2022-08-19T00:07:40.798Z,31.70
2022-08-19T00:08:42.816Z,34.90
2022-08-19T00:09:41.078Z,33.60
2022-08-19T00:10:41.257Z,30.60
2022-08-19T00:11:41.294Z,29.60
2022-08-19T00:12:43.929Z,29.50
2022-08-19T00:13:42.508Z,28.50
2022-08-19T00:14:41.628Z,30.50
2022-08-19T00:15:41.784Z,30.30
2022-08-19T00:16:42.451Z,32.90
2022-08-19T00:17:42.119Z,32.80
2022-08-19T00:18:42.128Z,34.40
2022-08-19T00:19:42.251Z,33.50
2022-08-19T00:20:42.405Z,33.80
2022-08-19T00:21:42.579Z,32.90
2022-08-19T00:22:42.710Z,34.30
2022-08-19T00:23:43.046Z,32.30
2022-08-19T00:24:42.947Z,31.80
2022-08-19T00:25:44.054Z,35.60
2022-08-19T00:26:43.246Z,33.60
2022-08-19T00:27:43.351Z,35.40
2022-08-19T00:28:43.498Z,33.80
2022-08-19T00:29:43.621Z,36.80
2022-08-19T00:30:43.717Z,32.50
2022-08-19T00:31:43.841Z,32.90
2022-08-19T00:32:44.002Z,32.00
2022-08-19T00:33:44.146Z,33.00
2022-08-19T00:34:44.287Z,31.60
2022-08-19T00:35:44.794Z,34.30
2022-08-19T00:36:44.532Z,35.10
2022-08-19T00:37:44.749Z,34.00
2022-08-19T00:38:44.918Z,34.00
2022-08-19T00:39:44.952Z,32.90
2022-08-19T00:40:45.097Z,32.50
2022-08-19T00:41:47.670Z,31.00
2022-08-19T00:42:45.353Z,30.10
2022-08-19T00:43:45.496Z,31.30
2022-08-19T00:44:45.635Z,31.10
2022-08-19T00:45:45.785Z,30.60
2022-08-19T00:46:51.628Z,31.30
2022-08-19T00:47:47.045Z,28.50
2022-08-19T00:48:46.167Z,27.90
2022-08-19T00:49:46.304Z,29.30
2022-08-19T00:50:51.620Z,28.80
2022-08-19T00:51:47.543Z,28.80
2022-08-19T00:52:46.705Z,27.90
2022-08-19T00:53:46.856Z,30.00
2022-08-19T00:54:49.695Z,30.70
2022-08-19T00:55:48.074Z,29.50
2022-08-19T00:56:47.265Z,31.00
2022-08-19T00:57:47.404Z,31.00
2022-08-19T00:58:47.512Z,32.80
2022-08-19T01:00:01.924Z,34.90
2022-08-19T01:00:48.725Z,35.60
2022-08-19T01:01:47.912Z,33.10
2022-08-19T01:02:47.971Z,33.10
2022-08-19T01:03:57.218Z,33.10
2022-08-19T01:04:49.194Z,33.60
2022-08-19T01:05:48.324Z,30.70
2022-08-19T01:06:48.474Z,30.00
2022-08-19T01:07:48.593Z,31.60
2022-08-19T01:08:50.086Z,31.10
2022-08-19T01:09:48.844Z,30.50
2022-08-19T01:10:48.977Z,33.30
2022-08-19T01:11:49.120Z,34.40
2022-08-19T01:12:50.255Z,31.80
2022-08-19T01:13:50.392Z,34.70
2022-08-19T01:14:49.544Z,40.20
2022-08-19T01:15:49.679Z,37.80
2022-08-19T01:16:49.809Z,36.70
2022-08-19T01:17:49.949Z,37.10
2022-08-19T01:18:50.076Z,37.90
2022-08-19T01:19:50.206Z,39.10
2022-08-19T01:20:50.355Z,37.30
2022-08-19T01:21:50.485Z,38.00
2022-08-19T01:22:50.662Z,34.70
2022-08-19T01:23:50.795Z,34.70
2022-08-19T01:24:50.934Z,37.00
2022-08-19T01:25:51.136Z,35.90
2022-08-19T01:26:51.155Z,37.40
2022-08-19T01:27:53.512Z,37.60
2022-08-19T01:28:51.875Z,35.70
2022-08-19T01:29:51.576Z,34.30
2022-08-19T01:30:51.705Z,33.70
2022-08-19T01:31:51.820Z,33.70
2022-08-19T01:32:52.073Z,34.70
2022-08-19T01:33:52.180Z,33.90
2022-08-19T01:34:52.315Z,36.20
2022-08-19T01:35:52.442Z,34.60
2022-08-19T01:36:52.603Z,37.10
2022-08-19T01:37:52.756Z,33.40
2022-08-19T01:38:52.902Z,36.00
2022-08-19T01:39:53.080Z,38.80
2022-08-19T01:40:53.121Z,40.30
2022-08-19T01:41:53.257Z,43.10
2022-08-19T01:42:53.603Z,49.60
2022-08-19T01:44:17.227Z,51.10
2022-08-19T01:44:54.713Z,57.10
2022-08-19T01:45:53.828Z,65.40
2022-08-19T01:46:53.985Z,65.00
2022-08-19T01:48:01.377Z,71.90
2022-08-19T01:48:55.219Z,74.40
2022-08-19T01:49:54.356Z,77.60
2022-08-19T01:50:54.486Z,81.50
2022-08-19T01:51:54.629Z,81.90
2022-08-19T01:53:06.272Z,76.70
2022-08-19T01:53:55.861Z,76.00
2022-08-19T01:54:55.017Z,80.30
2022-08-19T01:55:55.163Z,69.40
2022-08-19T01:56:55.304Z,67.40
2022-08-19T01:57:55.447Z,69.40
2022-08-19T01:58:55.600Z,74.40
2022-08-19T01:59:55.763Z,73.10
2022-08-19T02:00:55.923Z,78.20
2022-08-19T02:01:56.063Z,74.00
2022-08-19T02:02:56.212Z,70.70
2022-08-19T02:03:56.875Z,65.80
2022-08-19T02:04:56.515Z,72.60
2022-08-19T02:05:56.643Z,73.50
2022-08-19T02:06:56.792Z,72.70
2022-08-19T02:07:56.958Z,77.60
2022-08-19T02:08:57.425Z,82.20
2022-08-19T02:09:57.271Z,94.90
2022-08-19T02:10:57.418Z,98.60
2022-08-19T02:11:57.561Z,98.80
2022-08-19T02:12:57.720Z,100.10
2022-08-19T02:13:57.839Z,100.80
2022-08-19T02:14:57.993Z,103.90
2022-08-19T02:15:58.177Z,105.40
2022-08-19T02:16:58.316Z,110.40
2022-08-19T02:17:58.472Z,110.50
2022-08-19T02:18:58.602Z,107.50
2022-08-19T02:19:58.762Z,110.50
2022-08-19T02:20:58.916Z,109.20
2022-08-19T02:21:59.062Z,104.50
2022-08-19T02:22:59.233Z,104.90
2022-08-19T02:23:59.376Z,105.00
2022-08-19T02:24:59.524Z,105.60
2022-08-19T02:25:59.665Z,102.60
2022-08-19T02:26:59.832Z,102.50
2022-08-19T02:27:59.999Z,100.90
2022-08-19T02:29:00.154Z,98.10
2022-08-19T02:30:00.301Z,96.80
2022-08-19T02:31:00.450Z,99.20
2022-08-19T02:32:00.602Z,93.60
2022-08-19T02:33:00.752Z,91.90
2022-08-19T02:34:00.890Z,87.80
2022-08-19T02:35:01.055Z,92.40
2022-08-19T02:36:01.191Z,89.90
2022-08-19T02:37:03.750Z,98.90
2022-08-19T02:38:01.451Z,92.90
2022-08-19T02:39:01.587Z,94.30
2022-08-19T02:40:01.819Z,92.10
2022-08-19T02:41:01.907Z,91.30
2022-08-19T02:42:02.085Z,91.70
2022-08-19T02:43:02.239Z,91.30
2022-08-19T02:44:26.235Z,87.70
2022-08-19T02:45:03.478Z,91.40
2022-08-19T02:46:03.524Z,90.50
2022-08-19T02:47:02.800Z,93.60
2022-08-19T02:48:03.359Z,94.80
2022-08-19T02:49:04.029Z,99.50
2022-08-19T02:50:03.159Z,100.20
2022-08-19T02:51:03.306Z,99.10
2022-08-19T02:52:03.439Z,98.10
2022-08-19T02:53:03.597Z,102.20
2022-08-19T02:54:03.740Z,98.70
2022-08-19T02:55:03.879Z,103.40
2022-08-19T02:56:04.009Z,104.30
2022-08-19T02:57:04.154Z,105.10
2022-08-19T02:58:04.299Z,103.50
2022-08-19T02:59:04.438Z,105.40
2022-08-19T03:00:04.605Z,100.90
2022-08-19T03:01:04.774Z,104.50
2022-08-19T03:02:04.827Z,105.90
2022-08-19T03:03:04.973Z,99.30
2022-08-19T03:04:05.095Z,98.80
2022-08-19T03:05:05.237Z,98.10
2022-08-19T03:06:05.375Z,100.50
2022-08-19T03:07:11.166Z,101.70
2022-08-19T03:08:06.607Z,102.60
2022-08-19T03:09:05.742Z,102.30
2022-08-19T03:10:05.873Z,101.80
2022-08-19T03:11:06.013Z,104.60
2022-08-19T03:12:06.144Z,104.80
2022-08-19T03:13:06.274Z,103.80
2022-08-19T03:14:06.441Z,103.40
2022-08-19T03:15:06.567Z,105.10
2022-08-19T03:16:06.699Z,102.50
2022-08-19T03:17:06.826Z,102.60
2022-08-19T03:18:06.959Z,98.60
2022-08-19T03:19:07.078Z,98.60
2022-08-19T03:20:07.224Z,99.90
2022-08-19T03:21:07.353Z,99.90
2022-08-19T03:22:08.447Z,97.10
2022-08-19T03:23:07.598Z,99.90
2022-08-19T03:24:07.748Z,100.60
2022-08-19T03:25:07.886Z,102.90
2022-08-19T03:26:15.813Z,102.40
2022-08-19T03:27:09.132Z,103.00
2022-08-19T03:28:08.270Z,102.80
2022-08-19T03:29:08.654Z,102.60
2022-08-19T03:30:08.477Z,106.60
2022-08-19T03:31:44.050Z,100.70
2022-08-19T03:32:09.733Z,101.80
2022-08-19T03:33:09.926Z,105.90
2022-08-19T03:34:10.021Z,102.20
2022-08-19T03:35:09.187Z,107.90
2022-08-19T03:36:09.327Z,102.00
2022-08-19T03:37:09.491Z,104.90
2022-08-19T03:38:09.638Z,104.10
2022-08-19T03:39:09.796Z,104.60
2022-08-19T03:40:10.013Z,103.20
2022-08-19T03:41:10.015Z,105.50
2022-08-19T03:42:38.464Z,102.30
2022-08-19T03:43:11.267Z,104.60
2022-08-19T03:44:14.301Z,102.30
2022-08-19T03:45:11.513Z,107.00
2022-08-19T03:46:10.652Z,109.10
2022-08-19T03:47:10.792Z,111.00
2022-08-19T03:48:10.939Z,107.90
2022-08-19T03:49:11.098Z,100.70
2022-08-19T03:50:11.234Z,102.20
2022-08-19T03:51:11.408Z,103.10
2022-08-19T03:52:11.541Z,104.70
2022-08-19T03:53:11.702Z,109.40
2022-08-19T03:54:18.861Z,106.50
2022-08-19T03:55:11.983Z,106.20
2022-08-19T03:56:12.110Z,102.70
2022-08-19T03:57:12.244Z,104.40
2022-08-19T03:58:12.378Z,97.80
2022-08-19T03:59:12.506Z,101.10
2022-08-19T04:00:14.004Z,103.40
2022-08-19T04:01:12.797Z,103.60
2022-08-19T04:02:12.911Z,100.40
2022-08-19T04:03:13.061Z,97.30
2022-08-19T04:04:13.211Z,100.20
2022-08-19T04:05:13.367Z,97.40
2022-08-19T04:06:13.505Z,98.70
2022-08-19T04:07:13.651Z,99.50
2022-08-19T04:08:14.096Z,100.60
2022-08-19T04:09:13.889Z,96.70
2022-08-19T04:10:14.039Z,99.00
2022-08-19T04:11:14.234Z,94.90
2022-08-19T04:12:14.369Z,96.40
2022-08-19T04:13:14.510Z,95.90
2022-08-19T04:14:14.661Z,96.50
2022-08-19T04:15:14.827Z,98.40
2022-08-19T04:16:14.999Z,94.90
2022-08-19T04:17:15.133Z,90.10
2022-08-19T04:18:15.271Z,94.60
2022-08-19T04:19:15.408Z,93.30
2022-08-19T04:20:15.587Z,96.20
2022-08-19T04:21:15.770Z,97.10
2022-08-19T04:22:15.917Z,97.40
2022-08-19T04:23:16.053Z,95.40
2022-08-19T04:24:16.199Z,92.40
2022-08-19T04:25:16.349Z,91.40
2022-08-19T04:26:16.496Z,95.20
2022-08-19T04:27:16.641Z,99.30
2022-08-19T04:28:16.781Z,97.30
2022-08-19T04:29:16.936Z,97.70
2022-08-19T04:30:17.106Z,95.90
2022-08-19T04:31:17.231Z,96.20
2022-08-19T04:32:17.358Z,94.90
2022-08-19T04:33:17.501Z,94.60
2022-08-19T04:34:18.583Z,96.80
2022-08-19T04:35:21.024Z,96.50
2022-08-19T04:36:18.829Z,94.80
2022-08-19T04:37:17.989Z,97.20
2022-08-19T04:38:18.134Z,96.10
2022-08-19T04:39:18.269Z,98.60
2022-08-19T04:40:18.427Z,93.90
2022-08-19T04:41:18.565Z,96.20
2022-08-19T04:42:18.732Z,89.80
2022-08-19T04:43:18.873Z,91.80
2022-08-19T04:44:19.045Z,89.70
2022-08-19T04:45:19.194Z,90.00
2022-08-19T04:46:39.158Z,93.40
2022-08-19T04:47:20.914Z,86.20
2022-08-19T04:48:27.558Z,89.20
2022-08-19T04:49:20.624Z,87.30
2022-08-19T04:50:19.787Z,90.10
2022-08-19T04:51:19.929Z,91.90
2022-08-19T04:52:20.066Z,91.80
2022-08-19T04:53:20.198Z,87.80
2022-08-19T04:54:37.094Z,90.80
2022-08-19T04:55:21.441Z,86.90
2022-08-19T04:56:20.599Z,87.20
2022-08-19T04:57:20.738Z,84.50
2022-08-19T04:58:20.896Z,82.10
2022-08-19T04:59:21.037Z,86.20
2022-08-19T05:00:21.200Z,79.60
2022-08-19T05:01:21.457Z,78.00
2022-08-19T05:02:21.544Z,75.80
2022-08-19T05:03:21.653Z,73.90
2022-08-19T05:04:21.787Z,80.20
2022-08-19T05:05:21.943Z,80.20
2022-08-19T05:06:22.107Z,86.70
2022-08-19T05:07:22.241Z,77.80
2022-08-19T05:08:31.234Z,79.80
2022-08-19T05:09:23.494Z,75.90
2022-08-19T05:10:22.618Z,71.60
2022-08-19T05:11:26.418Z,69.40
2022-08-19T05:12:25.842Z,65.80
2022-08-19T05:13:23.988Z,65.70
2022-08-19T05:14:23.115Z,61.90
2022-08-19T05:15:23.254Z,64.10
2022-08-19T05:16:23.429Z,68.30
2022-08-19T05:17:27.691Z,65.50
2022-08-19T05:18:24.606Z,67.90
2022-08-19T05:19:23.756Z,62.20
2022-08-19T05:20:23.891Z,62.40
2022-08-19T05:21:24.028Z,62.70
2022-08-19T05:22:24.184Z,58.50
2022-08-19T05:23:24.344Z,62.30
2022-08-19T05:24:24.473Z,61.90
2022-08-19T05:25:24.614Z,63.00
2022-08-19T05:26:24.805Z,66.10
2022-08-19T05:27:24.908Z,63.60
2022-08-19T05:28:25.066Z,64.90
2022-08-19T05:29:25.177Z,66.30
2022-08-19T05:30:37.615Z,67.60
2022-08-19T05:31:26.449Z,65.40
2022-08-19T05:32:25.588Z,69.10
2022-08-19T05:33:25.715Z,68.70
2022-08-19T05:34:25.836Z,72.20
2022-08-19T05:35:25.962Z,73.00
2022-08-19T05:36:26.086Z,67.30
2022-08-19T05:37:26.215Z,75.20
2022-08-19T05:38:26.350Z,75.80
2022-08-19T05:39:26.512Z,75.60
2022-08-19T05:40:26.799Z,76.10
2022-08-19T05:41:26.769Z,79.80
2022-08-19T05:42:26.910Z,76.40
2022-08-19T05:43:27.045Z,78.30
2022-08-19T05:44:27.167Z,78.10
2022-08-19T05:45:27.276Z,75.60
2022-08-19T05:46:28.016Z,73.30
2022-08-19T05:47:27.556Z,80.10
2022-08-19T05:48:27.679Z,75.20
2022-08-19T05:49:27.790Z,72.60
2022-08-19T05:50:27.909Z,76.10
2022-08-19T05:51:29.252Z,70.90
2022-08-19T05:52:28.210Z,73.40
2022-08-19T05:53:28.338Z,69.00
2022-08-19T05:54:28.477Z,68.90
2022-08-19T05:55:28.587Z,73.00
2022-08-19T05:56:28.704Z,72.20
2022-08-19T05:57:28.837Z,72.50
2022-08-19T05:58:28.963Z,78.50
2022-08-19T05:59:29.072Z,76.10
2022-08-19T06:00:29.189Z,70.80
2022-08-19T06:01:29.312Z,71.40
2022-08-19T06:02:29.502Z,75.50
2022-08-19T06:03:29.516Z,72.70
2022-08-19T06:04:29.646Z,68.40
2022-08-19T06:05:29.776Z,68.50
2022-08-19T06:06:29.906Z,69.70
2022-08-19T06:07:30.114Z,68.60
2022-08-19T06:08:34.618Z,69.00
2022-08-19T06:09:30.187Z,68.80
2022-08-19T06:10:30.314Z,71.30
2022-08-19T06:11:30.427Z,62.10
2022-08-19T06:12:30.566Z,58.20
2022-08-19T06:13:33.305Z,60.40
2022-08-19T06:14:30.781Z,60.10
2022-08-19T06:15:30.821Z,59.70
2022-08-19T06:16:30.956Z,64.60
2022-08-19T06:17:31.726Z,55.00
2022-08-19T06:18:31.160Z,55.40
2022-08-19T06:19:31.286Z,53.90
2022-08-19T06:20:54.529Z,49.90
2022-08-19T06:21:32.475Z,49.90
2022-08-19T06:22:31.625Z,51.00
2022-08-19T06:23:31.754Z,48.40
2022-08-19T06:24:31.875Z,47.50
2022-08-19T06:25:32.006Z,47.50
2022-08-19T06:26:32.137Z,49.30
2022-08-19T06:27:32.279Z,48.90
2022-08-19T06:28:32.396Z,46.00
2022-08-19T06:29:32.518Z,44.60
2022-08-19T06:30:32.639Z,42.40
2022-08-19T06:31:32.777Z,43.10
2022-08-19T06:32:32.924Z,42.50
2022-08-19T06:33:33.051Z,43.90
2022-08-19T06:34:33.186Z,47.20
2022-08-19T06:35:33.325Z,45.30
2022-08-19T06:36:33.467Z,45.10
2022-08-19T06:37:33.627Z,44.60
2022-08-19T06:38:33.721Z,45.60
2022-08-19T06:39:33.930Z,47.50
2022-08-19T06:40:34.007Z,44.90
2022-08-19T06:41:33.997Z,41.50
2022-08-19T06:42:34.166Z,44.00
2022-08-19T06:43:34.179Z,45.90
2022-08-19T06:44:34.343Z,43.00
2022-08-19T06:45:35.809Z,41.50
2022-08-19T06:46:35.535Z,39.90
2022-08-19T06:47:34.681Z,38.00
2022-08-19T06:48:39.050Z,42.10
2022-08-19T06:49:35.886Z,40.60
2022-08-19T06:50:35.003Z,41.10
2022-08-19T06:51:35.201Z,45.20
2022-08-19T06:52:36.465Z,40.20
2022-08-19T06:53:35.314Z,43.50
2022-08-19T06:54:37.761Z,39.30
2022-08-19T06:55:36.500Z,38.70
2022-08-19T06:56:35.630Z,43.20
2022-08-19T06:57:35.760Z,43.20
2022-08-19T06:58:35.867Z,43.40
2022-08-19T06:59:35.986Z,42.80
2022-08-19T07:00:36.108Z,41.00
2022-08-19T07:01:36.217Z,41.80
2022-08-19T07:02:36.331Z,41.70
2022-08-19T07:03:37.358Z,38.50
2022-08-19T07:04:36.508Z,39.00
2022-08-19T07:05:37.265Z,42.40
2022-08-19T07:06:44.006Z,39.20
2022-08-19T07:07:37.776Z,40.70
2022-08-19T07:09:37.061Z,39.80
2022-08-19T07:10:37.172Z,42.60
2022-08-19T07:11:38.234Z,40.90
2022-08-19T07:12:38.190Z,39.30
2022-08-19T07:13:37.479Z,38.60
2022-08-19T07:14:37.594Z,39.00
2022-08-19T07:15:37.723Z,36.50
2022-08-19T07:16:42.473Z,34.20
2022-08-19T07:17:39.121Z,34.00
2022-08-19T07:18:38.011Z,31.60
2022-08-19T07:19:38.197Z,29.40
2022-08-19T07:20:38.300Z,29.90
2022-08-19T07:21:38.429Z,31.10
2022-08-19T07:22:38.585Z,32.10
2022-08-19T07:23:38.689Z,30.30
2022-08-19T07:24:38.796Z,29.60
2022-08-19T07:25:39.855Z,30.00
2022-08-19T07:26:39.021Z,29.60
2022-08-19T07:27:39.687Z,29.50
2022-08-19T07:28:39.107Z,30.00
2022-08-19T07:29:40.163Z,30.50
2022-08-19T07:30:39.289Z,29.90
2022-08-19T07:31:39.410Z,33.00
2022-08-19T07:32:39.615Z,31.10
2022-08-19T07:33:39.639Z,29.60
2022-08-19T07:34:40.067Z,30.00
2022-08-19T07:35:39.829Z,29.50
2022-08-19T07:36:39.933Z,27.00
2022-08-19T07:37:40.035Z,27.90
2022-08-19T07:38:40.156Z,27.30
2022-08-19T07:39:40.286Z,27.40
2022-08-19T07:40:40.350Z,25.80
2022-08-19T07:41:40.460Z,27.00
2022-08-19T07:42:40.571Z,26.40
2022-08-19T07:43:40.671Z,25.20
2022-08-19T07:45:40.919Z,24.20
2022-08-19T07:46:41.030Z,26.50
2022-08-19T07:47:58.578Z,25.70
2022-08-19T07:48:42.202Z,25.80
2022-08-19T07:49:41.324Z,25.30
2022-08-19T07:50:41.446Z,24.70
2022-08-19T07:51:41.558Z,24.00
2022-08-19T07:52:41.654Z,24.20
2022-08-19T07:53:41.765Z,24.20
2022-08-19T07:54:41.881Z,24.10
2022-08-19T07:55:43.766Z,24.40
2022-08-19T07:56:42.088Z,24.00
2022-08-19T07:57:42.191Z,25.10
2022-08-19T07:58:42.316Z,24.90
2022-08-19T07:59:42.421Z,22.40
2022-08-19T08:00:42.556Z,22.70
2022-08-19T08:01:42.715Z,23.10
2022-08-19T08:02:42.788Z,23.00
2022-08-19T08:03:42.918Z,22.70
2022-08-19T08:04:43.023Z,23.20
2022-08-19T08:05:44.203Z,22.10
2022-08-19T08:06:43.235Z,21.50
2022-08-19T08:07:46.214Z,21.70
2022-08-19T08:08:44.494Z,21.10
2022-08-19T08:09:43.603Z,20.00
2022-08-19T08:10:44.607Z,20.60
2022-08-19T08:11:44.784Z,20.00
2022-08-19T08:12:43.895Z,20.60
2022-08-19T08:13:45.008Z,21.30
2022-08-19T08:14:44.250Z,20.10
2022-08-19T08:15:44.208Z,20.20
2022-08-19T08:16:47.070Z,20.80
2022-08-19T08:17:49.341Z,20.60
2022-08-19T08:18:50.770Z,20.40
2022-08-19T08:19:45.602Z,20.90
2022-08-19T08:20:44.803Z,21.20
2022-08-19T08:21:44.818Z,21.40
2022-08-19T08:22:44.947Z,20.70
2022-08-19T08:23:45.133Z,20.50
2022-08-19T08:24:45.144Z,19.80
2022-08-19T08:25:45.236Z,19.40
2022-08-19T08:26:46.878Z,19.80
2022-08-19T08:27:46.360Z,19.60
2022-08-19T08:28:47.965Z,19.20
2022-08-19T08:29:45.596Z,19.70
2022-08-19T08:30:45.721Z,19.60
2022-08-19T08:31:45.851Z,20.00
2022-08-19T08:32:46.104Z,19.70
2022-08-19T08:33:46.091Z,19.00
2022-08-19T08:34:47.347Z,20.50
2022-08-19T08:35:47.296Z,20.70
2022-08-19T08:36:46.442Z,19.80
2022-08-19T08:37:46.797Z,20.30
2022-08-19T08:38:46.783Z,20.70
2022-08-19T08:39:47.054Z,20.30
2022-08-19T08:40:46.978Z,20.20
2022-08-19T08:41:47.076Z,19.70
2022-08-19T08:42:47.255Z,20.60
2022-08-19T08:43:47.373Z,19.60
2022-08-19T08:44:47.532Z,19.80
2022-08-19T08:45:47.541Z,20.30
2022-08-19T08:46:48.617Z,20.00
2022-08-19T08:47:47.814Z,19.30
2022-08-19T08:48:47.878Z,19.40
2022-08-19T08:49:51.290Z,19.30
2022-08-19T08:50:48.117Z,19.50
2022-08-19T08:51:48.157Z,19.20
2022-08-19T08:52:49.218Z,19.80
2022-08-19T08:53:48.339Z,20.40
2022-08-19T08:54:54.978Z,20.20
2022-08-19T08:55:49.519Z,19.70
2022-08-19T08:56:48.652Z,19.70
2022-08-19T08:57:48.792Z,19.40
2022-08-19T08:58:53.864Z,20.40
2022-08-19T08:59:49.991Z,20.30
2022-08-19T09:00:49.107Z,20.50
2022-08-19T09:01:49.353Z,21.60
2022-08-19T09:02:50.398Z,21.50
2022-08-19T09:03:49.407Z,21.70
2022-08-19T09:04:49.527Z,21.50
2022-08-19T09:05:49.607Z,21.80
2022-08-19T09:06:49.693Z,21.90
2022-08-19T09:07:49.850Z,21.20
2022-08-19T09:08:50.022Z,20.10
2022-08-19T09:09:50.136Z,20.20
2022-08-19T09:10:55.292Z,21.00
2022-08-19T09:11:51.360Z,21.10
2022-08-19T09:12:50.438Z,20.60
2022-08-19T09:13:50.573Z,20.30
2022-08-19T09:14:52.029Z,20.80
2022-08-19T09:15:50.856Z,21.80
2022-08-19T09:16:50.966Z,21.00
2022-08-19T09:17:51.084Z,20.70
2022-08-19T09:18:51.167Z,19.40
2022-08-19T09:19:51.320Z,19.40
2022-08-19T09:20:51.437Z,19.10
2022-08-19T09:21:51.602Z,19.30
2022-08-19T09:22:51.723Z,19.80
2022-08-19T09:23:51.834Z,19.20
2022-08-19T09:24:52.006Z,18.20
2022-08-19T09:25:52.033Z,18.80
2022-08-19T09:26:52.980Z,18.80
2022-08-19T09:27:52.249Z,18.80
2022-08-19T09:28:52.380Z,18.20
2022-08-19T09:29:52.557Z,18.30
2022-08-19T09:30:52.962Z,18.10
2022-08-19T09:31:52.727Z,18.50
2022-08-19T09:32:53.195Z,18.30
2022-08-19T09:33:52.954Z,18.10
2022-08-19T09:34:53.125Z,18.20
2022-08-19T09:35:53.963Z,17.40
2022-08-19T09:36:53.344Z,17.90
2022-08-19T09:37:57.779Z,17.30
2022-08-19T09:38:54.559Z,17.60
2022-08-19T09:39:53.771Z,17.20
2022-08-19T09:40:53.726Z,17.60
2022-08-19T09:41:53.875Z,16.80
2022-08-19T09:42:54.008Z,17.20
2022-08-19T09:43:54.113Z,17.10
2022-08-19T09:44:54.244Z,16.80
2022-08-19T09:45:54.374Z,17.10
2022-08-19T09:46:54.498Z,16.90
2022-08-19T09:47:55.309Z,16.90
2022-08-19T09:48:54.739Z,17.40
2022-08-19T09:49:54.900Z,17.20
2022-08-19T09:50:55.003Z,16.70
2022-08-19T09:51:55.146Z,17.10
2022-08-19T09:52:57.349Z,17.00
2022-08-19T09:54:04.666Z,16.90
2022-08-19T09:54:58.151Z,17.30
2022-08-19T09:55:55.584Z,17.00
2022-08-19T09:56:55.696Z,15.90
2022-08-19T09:57:55.801Z,15.80
2022-08-19T09:58:55.920Z,16.30
2022-08-19T09:59:56.052Z,16.50
2022-08-19T10:00:56.220Z,16.40
2022-08-19T10:01:56.261Z,16.80
2022-08-19T10:02:57.328Z,17.00
2022-08-19T10:03:56.451Z,17.10
2022-08-19T10:04:56.504Z,17.20
2022-08-19T10:05:56.541Z,16.40
2022-08-19T10:06:56.646Z,16.60
2022-08-19T10:07:56.910Z,16.60
2022-08-19T10:08:56.835Z,16.80
2022-08-19T10:09:56.945Z,17.40
2022-08-19T10:10:57.055Z,16.20
2022-08-19T10:11:57.145Z,17.20
2022-08-19T10:12:57.253Z,17.10
2022-08-19T10:13:57.361Z,16.60
2022-08-19T10:14:57.478Z,16.30
2022-08-19T10:15:57.784Z,16.50
2022-08-19T10:16:59.268Z,16.10
2022-08-19T10:17:58.767Z,15.80
2022-08-19T10:18:58.888Z,16.00
2022-08-19T10:19:57.924Z,15.60
2022-08-19T10:20:58.018Z,16.40
2022-08-19T10:22:00.355Z,16.20
2022-08-19T10:22:58.267Z,15.80
2022-08-19T10:23:58.382Z,15.80
2022-08-19T10:24:58.547Z,15.50
2022-08-19T10:25:58.597Z,16.10
2022-08-19T10:26:59.820Z,15.50
2022-08-19T10:27:58.699Z,15.40
2022-08-19T10:28:58.805Z,15.20
2022-08-19T10:29:58.881Z,14.60
2022-08-19T10:30:58.955Z,14.00
2022-08-19T10:32:00.521Z,14.40
2022-08-19T10:32:59.211Z,13.50
2022-08-19T10:33:59.324Z,13.90
2022-08-19T10:34:59.378Z,13.50
2022-08-19T10:35:59.477Z,13.50
2022-08-19T10:37:01.095Z,14.10
2022-08-19T10:38:02.157Z,13.10
2022-08-19T10:38:59.832Z,13.60
2022-08-19T10:39:59.917Z,13.80
2022-08-19T10:40:59.902Z,13.70
2022-08-19T10:42:00.179Z,13.30
2022-08-19T10:43:00.060Z,13.50
2022-08-19T10:44:04.516Z,13.10
2022-08-19T10:45:00.370Z,13.50
2022-08-19T10:46:00.390Z,13.50
2022-08-19T10:47:00.495Z,13.50
2022-08-19T10:48:00.593Z,13.80
2022-08-19T10:49:00.712Z,12.90
2022-08-19T10:50:00.824Z,13.30
2022-08-19T10:51:00.924Z,13.10
2022-08-19T10:52:00.994Z,13.80
2022-08-19T10:53:01.102Z,13.40
2022-08-19T10:54:02.161Z,13.90
2022-08-19T10:55:05.382Z,14.10
2022-08-19T10:56:02.340Z,14.00
2022-08-19T10:57:01.441Z,14.30
2022-08-19T10:58:02.783Z,14.20
2022-08-19T10:59:01.614Z,14.20
2022-08-19T11:00:01.756Z,14.10
2022-08-19T11:01:01.901Z,14.40
2022-08-19T11:02:02.000Z,13.90
2022-08-19T11:03:02.116Z,13.10
2022-08-19T11:04:02.227Z,14.10
2022-08-19T11:05:12.345Z,13.70
2022-08-19T11:06:03.412Z,14.10
2022-08-19T11:07:02.519Z,13.90
2022-08-19T11:08:02.916Z,13.60
2022-08-19T11:09:03.693Z,14.30
2022-08-19T11:10:02.817Z,14.40
2022-08-19T11:11:02.925Z,13.40
2022-08-19T11:12:04.822Z,14.20
2022-08-19T11:13:03.158Z,13.30
2022-08-19T11:14:03.285Z,13.40
2022-08-19T11:15:03.409Z,13.60
2022-08-19T11:16:07.313Z,13.60
2022-08-19T11:17:03.593Z,13.00
2022-08-19T11:18:03.694Z,13.10
2022-08-19T11:19:03.759Z,13.30
2022-08-19T11:20:03.876Z,13.40
2022-08-19T11:21:03.971Z,13.60
2022-08-19T11:22:04.131Z,13.70
2022-08-19T11:23:04.448Z,13.70
2022-08-19T11:24:04.359Z,13.80
2022-08-19T11:25:04.483Z,12.90
2022-08-19T11:26:04.593Z,13.10
2022-08-19T11:27:04.701Z,13.00
2022-08-19T11:28:04.811Z,12.60
2022-08-19T11:29:04.922Z,12.50
2022-08-19T11:30:05.061Z,13.10
2022-08-19T11:31:05.114Z,12.20
2022-08-19T11:32:05.231Z,12.50
2022-08-19T11:33:05.334Z,12.40
2022-08-19T11:34:05.449Z,12.60
2022-08-19T11:35:05.563Z,12.60
2022-08-19T11:36:05.668Z,12.60
2022-08-19T11:37:05.777Z,12.60
2022-08-19T11:38:09.725Z,12.30
2022-08-19T11:39:05.948Z,12.10
2022-08-19T11:40:06.126Z,12.20
2022-08-19T11:41:06.095Z,11.80
2022-08-19T11:42:06.211Z,12.00
2022-08-19T11:43:06.310Z,11.90
2022-08-19T11:44:06.423Z,11.80
2022-08-19T11:45:06.547Z,11.70
2022-08-19T11:46:06.652Z,11.80
2022-08-19T11:47:09.135Z,11.70
2022-08-19T11:48:06.812Z,11.80
2022-08-19T11:49:10.648Z,11.50
2022-08-19T11:50:08.013Z,11.40
2022-08-19T11:51:07.146Z,11.60
2022-08-19T11:52:07.234Z,11.50
2022-08-19T11:53:07.383Z,11.30
2022-08-19T11:54:07.480Z,11.10
2022-08-19T11:55:07.579Z,11.00
2022-08-19T11:56:07.696Z,11.30
2022-08-19T11:57:07.773Z,11.00
2022-08-19T11:58:07.872Z,10.50
2022-08-19T11:59:12.846Z,10.70
2022-08-19T12:00:09.069Z,10.60
2022-08-19T12:01:08.172Z,10.40
2022-08-19T12:02:08.280Z,10.20
2022-08-19T12:03:08.398Z,10.10
2022-08-19T12:04:08.564Z,10.60
2022-08-19T12:05:12.291Z,10.40
2022-08-19T12:06:08.652Z,10.60
2022-08-19T12:07:08.749Z,10.90
2022-08-19T12:08:08.860Z,10.50
2022-08-19T12:09:08.968Z,10.40
2022-08-19T12:10:09.235Z,10.40
2022-08-19T12:11:09.261Z,10.00
2022-08-19T12:12:09.361Z,10.10
2022-08-19T12:13:09.462Z,10.20
2022-08-19T12:14:09.829Z,10.00
2022-08-19T12:15:09.654Z,9.80
2022-08-19T12:16:09.786Z,9.80
2022-08-19T12:17:09.908Z,9.80
2022-08-19T12:18:10.012Z,9.60
2022-08-19T12:19:10.158Z,9.50
2022-08-19T12:20:10.278Z,9.80
2022-08-19T12:21:10.392Z,9.80
2022-08-19T12:22:10.506Z,9.80
2022-08-19T12:23:10.611Z,9.30
2022-08-19T12:24:10.724Z,10.10
2022-08-19T12:25:10.830Z,9.40
2022-08-19T12:26:10.962Z,9.10
2022-08-19T12:27:12.753Z,9.10
2022-08-19T12:28:11.163Z,9.70
2022-08-19T12:29:11.274Z,9.50
2022-08-19T12:30:11.381Z,9.40
2022-08-19T12:31:11.500Z,9.00
2022-08-19T12:32:12.173Z,9.20
2022-08-19T12:33:11.690Z,8.90
2022-08-19T12:34:11.793Z,9.20
2022-08-19T12:35:11.900Z,9.20
2022-08-19T12:36:12.038Z,9.10
2022-08-19T12:37:12.132Z,8.90
2022-08-19T12:38:12.236Z,9.10
2022-08-19T12:39:12.345Z,9.10
2022-08-19T12:40:12.492Z,9.10
2022-08-19T12:41:12.527Z,9.30
2022-08-19T12:42:12.642Z,9.00
2022-08-19T12:43:12.744Z,8.60
2022-08-19T12:44:12.854Z,8.60
2022-08-19T12:45:12.993Z,8.20
2022-08-19T12:46:13.376Z,8.50
2022-08-19T12:47:13.142Z,8.10
2022-08-19T12:48:33.936Z,8.20
2022-08-19T12:49:32.152Z,8.50
2022-08-19T12:50:14.344Z,8.10
2022-08-19T12:51:13.463Z,8.30
2022-08-19T12:52:13.562Z,8.40
2022-08-19T12:53:13.741Z,8.40
2022-08-19T12:54:13.852Z,8.30
2022-08-19T12:55:13.961Z,8.00